sensor_id;sensor_type;location;lat;lon;timestamp;temperature;humidity
13585;DHT22;6863;48.402;9.994;2023-04-01T00:00:56;7.50;99.90
13585;DHT22;6863;48.402;9.994;2023-04-01T00:03:22;7.50;99.90
13585;DHT22;6863;48.402;9.994;2023-04-01T00:05:48;7.50;99.90
13585;DHT22;6863;48.402;9.994;2023-04-01T00:08:14;7.50;99.90
13585;DHT22;6863;48.402;9.994;2023-04-01T00:10:40;7.50;99.90
13585;DHT22;6863;48.402;9.994;2023-04-01T00:13:06;7.40;99.90
13585;DHT22;6863;48.402;9.994;2023-04-01T00:15:32;7.40;99.90
13585;DHT22;6863;48.402;9.994;2023-04-01T00:17:58;7.40;99.90
13585;DHT22;6863;48.402;9.994;2023-04-01T00:20:24;7.40;99.90
13585;DHT22;6863;48.402;9.994;2023-04-01T00:22:50;7.40;99.90
13585;DHT22;6863;48.402;9.994;2023-04-01T00:25:16;7.50;99.90
13585;DHT22;6863;48.402;9.994;2023-04-01T00:27:41;7.50;99.90
13585;DHT22;6863;48.402;9.994;2023-04-01T00:30:08;7.50;99.90
13585;DHT22;6863;48.402;9.994;2023-04-01T00:32:34;7.50;99.90
13585;DHT22;6863;48.402;9.994;2023-04-01T00:35:00;7.40;99.90
13585;DHT22;6863;48.402;9.994;2023-04-01T00:37:27;7.30;99.90
13585;DHT22;6863;48.402;9.994;2023-04-01T00:39:53;7.30;99.90
13585;DHT22;6863;48.402;9.994;2023-04-01T00:42:19;7.30;99.90
13585;DHT22;6863;48.402;9.994;2023-04-01T00:44:52;7.20;99.90
13585;DHT22;6863;48.402;9.994;2023-04-01T00:47:18;7.20;99.90
13585;DHT22;6863;48.402;9.994;2023-04-01T00:49:47;7.20;99.90
13585;DHT22;6863;48.402;9.994;2023-04-01T00:52:18;7.20;99.90
13585;DHT22;6863;48.402;9.994;2023-04-01T00:54:47;7.20;99.90
13585;DHT22;6863;48.402;9.994;2023-04-01T00:57:20;7.20;99.90
13585;DHT22;6863;48.402;9.994;2023-04-01T00:59:49;7.20;99.90
13585;DHT22;6863;48.402;9.994;2023-04-01T01:02:18;7.20;99.90
13585;DHT22;6863;48.402;9.994;2023-04-01T01:04:44;7.10;99.90
13585;DHT22;6863;48.402;9.994;2023-04-01T01:15:25;7.10;99.90
13585;DHT22;6863;48.402;9.994;2023-04-01T01:18:22;7.10;99.90
13585;DHT22;6863;48.402;9.994;2023-04-01T01:26:44;7.10;99.90
13585;DHT22;6863;48.402;9.994;2023-04-01T01:32:14;7.00;99.90
13585;DHT22;6863;48.402;9.994;2023-04-01T01:37:30;6.90;99.90
13585;DHT22;6863;48.402;9.994;2023-04-01T01:40:00;6.90;99.90
13585;DHT22;6863;48.402;9.994;2023-04-01T01:42:28;7.00;99.90
13585;DHT22;6863;48.402;9.994;2023-04-01T01:44:56;7.00;99.90
13585;DHT22;6863;48.402;9.994;2023-04-01T01:47:25;6.90;99.90
13585;DHT22;6863;48.402;9.994;2023-04-01T01:49:53;6.90;99.90
13585;DHT22;6863;48.402;9.994;2023-04-01T01:52:19;6.80;99.90
13585;DHT22;6863;48.402;9.994;2023-04-01T01:54:50;6.80;99.90
13585;DHT22;6863;48.402;9.994;2023-04-01T01:57:17;6.80;99.90
13585;DHT22;6863;48.402;9.994;2023-04-01T01:59:45;6.70;99.90
13585;DHT22;6863;48.402;9.994;2023-04-01T02:02:13;6.70;99.90
13585;DHT22;6863;48.402;9.994;2023-04-01T02:04:42;6.80;99.90
13585;DHT22;6863;48.402;9.994;2023-04-01T02:07:21;6.70;99.90
13585;DHT22;6863;48.402;9.994;2023-04-01T02:09:49;6.70;99.90
13585;DHT22;6863;48.402;9.994;2023-04-01T02:12:16;6.70;99.90
13585;DHT22;6863;48.402;9.994;2023-04-01T02:15:05;6.60;99.90
13585;DHT22;6863;48.402;9.994;2023-04-01T02:17:34;6.60;99.90
13585;DHT22;6863;48.402;9.994;2023-04-01T02:20:04;6.60;99.90
13585;DHT22;6863;48.402;9.994;2023-04-01T02:22:39;6.70;99.90
13585;DHT22;6863;48.402;9.994;2023-04-01T02:25:20;6.70;99.90
13585;DHT22;6863;48.402;9.994;2023-04-01T02:27:47;6.70;99.90
13585;DHT22;6863;48.402;9.994;2023-04-01T02:30:14;6.70;99.90
13585;DHT22;6863;48.402;9.994;2023-04-01T02:32:40;6.70;99.90
13585;DHT22;6863;48.402;9.994;2023-04-01T02:35:09;6.70;99.90
13585;DHT22;6863;48.402;9.994;2023-04-01T02:37:37;6.70;99.90
13585;DHT22;6863;48.402;9.994;2023-04-01T02:40:05;6.70;99.90
13585;DHT22;6863;48.402;9.994;2023-04-01T02:42:35;6.70;99.90
13585;DHT22;6863;48.402;9.994;2023-04-01T02:45:01;6.70;99.90
13585;DHT22;6863;48.402;9.994;2023-04-01T02:47:26;6.60;99.90
13585;DHT22;6863;48.402;9.994;2023-04-01T02:49:52;6.60;99.90
13585;DHT22;6863;48.402;9.994;2023-04-01T02:52:32;6.60;99.90
13585;DHT22;6863;48.402;9.994;2023-04-01T02:54:58;6.50;99.90
13585;DHT22;6863;48.402;9.994;2023-04-01T02:57:24;6.60;99.90
13585;DHT22;6863;48.402;9.994;2023-04-01T02:59:50;6.60;99.90
13585;DHT22;6863;48.402;9.994;2023-04-01T03:02:16;6.50;99.90
13585;DHT22;6863;48.402;9.994;2023-04-01T03:04:42;6.50;99.90
13585;DHT22;6863;48.402;9.994;2023-04-01T03:07:08;6.60;99.90
13585;DHT22;6863;48.402;9.994;2023-04-01T03:09:35;6.70;99.90
13585;DHT22;6863;48.402;9.994;2023-04-01T03:12:01;6.70;99.90
13585;DHT22;6863;48.402;9.994;2023-04-01T03:14:27;6.70;99.90
13585;DHT22;6863;48.402;9.994;2023-04-01T03:16:52;6.70;99.90
13585;DHT22;6863;48.402;9.994;2023-04-01T03:19:18;6.70;99.90
13585;DHT22;6863;48.402;9.994;2023-04-01T03:21:44;6.70;99.90
13585;DHT22;6863;48.402;9.994;2023-04-01T03:24:09;6.70;99.90
13585;DHT22;6863;48.402;9.994;2023-04-01T03:26:35;6.70;99.90
13585;DHT22;6863;48.402;9.994;2023-04-01T03:29:00;6.60;99.90
13585;DHT22;6863;48.402;9.994;2023-04-01T03:31:26;6.70;99.90
13585;DHT22;6863;48.402;9.994;2023-04-01T03:33:51;6.60;99.90
13585;DHT22;6863;48.402;9.994;2023-04-01T03:36:17;6.70;99.90
13585;DHT22;6863;48.402;9.994;2023-04-01T03:38:43;6.70;99.90
13585;DHT22;6863;48.402;9.994;2023-04-01T03:41:14;6.70;99.90
13585;DHT22;6863;48.402;9.994;2023-04-01T03:43:39;6.60;99.90
13585;DHT22;6863;48.402;9.994;2023-04-01T03:46:05;6.60;99.90
13585;DHT22;6863;48.402;9.994;2023-04-01T03:48:31;6.50;99.90
13585;DHT22;6863;48.402;9.994;2023-04-01T03:50:56;6.50;99.90
13585;DHT22;6863;48.402;9.994;2023-04-01T03:53:22;6.40;99.90
13585;DHT22;6863;48.402;9.994;2023-04-01T03:55:47;6.40;99.90
13585;DHT22;6863;48.402;9.994;2023-04-01T03:58:13;6.40;99.90
13585;DHT22;6863;48.402;9.994;2023-04-01T04:00:39;6.40;99.90
13585;DHT22;6863;48.402;9.994;2023-04-01T04:03:06;6.40;99.90
13585;DHT22;6863;48.402;9.994;2023-04-01T04:05:32;6.40;99.90
13585;DHT22;6863;48.402;9.994;2023-04-01T04:07:57;6.40;99.90
13585;DHT22;6863;48.402;9.994;2023-04-01T04:10:23;6.40;99.90
13585;DHT22;6863;48.402;9.994;2023-04-01T04:12:50;6.40;99.90
13585;DHT22;6863;48.402;9.994;2023-04-01T04:15:16;6.40;99.90
13585;DHT22;6863;48.402;9.994;2023-04-01T04:17:41;6.40;99.90
13585;DHT22;6863;48.402;9.994;2023-04-01T04:20:08;6.30;99.90
13585;DHT22;6863;48.402;9.994;2023-04-01T04:22:34;6.30;99.90
13585;DHT22;6863;48.402;9.994;2023-04-01T04:25:00;6.30;99.90
13585;DHT22;6863;48.402;9.994;2023-04-01T04:27:25;6.30;99.90
13585;DHT22;6863;48.402;9.994;2023-04-01T04:29:51;6.30;99.90
13585;DHT22;6863;48.402;9.994;2023-04-01T04:32:16;6.40;99.90
13585;DHT22;6863;48.402;9.994;2023-04-01T04:34:42;6.40;99.90
13585;DHT22;6863;48.402;9.994;2023-04-01T04:37:07;6.40;99.90
13585;DHT22;6863;48.402;9.994;2023-04-01T04:39:33;6.40;99.90
13585;DHT22;6863;48.402;9.994;2023-04-01T04:41:59;6.40;99.90
13585;DHT22;6863;48.402;9.994;2023-04-01T04:46:49;6.40;99.90
13585;DHT22;6863;48.402;9.994;2023-04-01T04:49:15;6.30;99.90
13585;DHT22;6863;48.402;9.994;2023-04-01T04:51:41;6.40;99.90
13585;DHT22;6863;48.402;9.994;2023-04-01T04:54:07;6.40;99.90
13585;DHT22;6863;48.402;9.994;2023-04-01T04:56:32;6.30;99.90
13585;DHT22;6863;48.402;9.994;2023-04-01T04:58:58;6.30;99.90
13585;DHT22;6863;48.402;9.994;2023-04-01T05:01:24;6.30;99.90
13585;DHT22;6863;48.402;9.994;2023-04-01T05:03:50;6.30;99.90
13585;DHT22;6863;48.402;9.994;2023-04-01T05:06:16;6.30;99.90
13585;DHT22;6863;48.402;9.994;2023-04-01T05:08:43;6.30;99.90
13585;DHT22;6863;48.402;9.994;2023-04-01T05:11:12;6.30;99.90
13585;DHT22;6863;48.402;9.994;2023-04-01T05:13:38;6.30;99.90
13585;DHT22;6863;48.402;9.994;2023-04-01T05:16:08;6.30;99.90
13585;DHT22;6863;48.402;9.994;2023-04-01T05:18:34;6.20;99.90
13585;DHT22;6863;48.402;9.994;2023-04-01T05:20:59;6.20;99.90
13585;DHT22;6863;48.402;9.994;2023-04-01T05:23:25;6.20;99.90
13585;DHT22;6863;48.402;9.994;2023-04-01T05:25:51;6.30;99.90
13585;DHT22;6863;48.402;9.994;2023-04-01T05:28:18;6.30;99.90
13585;DHT22;6863;48.402;9.994;2023-04-01T05:30:45;6.30;99.90
13585;DHT22;6863;48.402;9.994;2023-04-01T05:33:12;6.30;99.90
13585;DHT22;6863;48.402;9.994;2023-04-01T05:35:37;6.30;99.90
13585;DHT22;6863;48.402;9.994;2023-04-01T05:38:04;6.40;99.90
13585;DHT22;6863;48.402;9.994;2023-04-01T05:40:30;6.40;99.90
13585;DHT22;6863;48.402;9.994;2023-04-01T05:42:56;6.40;99.90
13585;DHT22;6863;48.402;9.994;2023-04-01T05:45:22;6.50;99.90
13585;DHT22;6863;48.402;9.994;2023-04-01T05:47:47;6.50;99.90
13585;DHT22;6863;48.402;9.994;2023-04-01T05:50:13;6.50;99.90
13585;DHT22;6863;48.402;9.994;2023-04-01T05:52:39;6.60;99.90
13585;DHT22;6863;48.402;9.994;2023-04-01T05:55:05;6.60;99.90
13585;DHT22;6863;48.402;9.994;2023-04-01T05:57:31;6.70;99.90
13585;DHT22;6863;48.402;9.994;2023-04-01T05:59:56;6.70;99.90
13585;DHT22;6863;48.402;9.994;2023-04-01T06:02:23;6.70;99.90
13585;DHT22;6863;48.402;9.994;2023-04-01T06:04:49;6.80;99.90
13585;DHT22;6863;48.402;9.994;2023-04-01T06:07:16;6.80;99.90
13585;DHT22;6863;48.402;9.994;2023-04-01T06:09:43;6.80;99.90
13585;DHT22;6863;48.402;9.994;2023-04-01T06:20:57;7.00;99.90
13585;DHT22;6863;48.402;9.994;2023-04-01T06:26:19;7.20;99.90
13585;DHT22;6863;48.402;9.994;2023-04-01T06:40:10;7.40;99.90
13585;DHT22;6863;48.402;9.994;2023-04-01T06:43:01;7.50;99.90
13585;DHT22;6863;48.402;9.994;2023-04-01T06:54:37;8.00;99.90
13585;DHT22;6863;48.402;9.994;2023-04-01T06:57:02;8.10;99.90
13585;DHT22;6863;48.402;9.994;2023-04-01T06:59:33;8.10;99.90
13585;DHT22;6863;48.402;9.994;2023-04-01T07:04:50;8.40;99.90
13585;DHT22;6863;48.402;9.994;2023-04-01T07:09:59;8.60;99.90
13585;DHT22;6863;48.402;9.994;2023-04-01T07:12:53;8.60;99.90
13585;DHT22;6863;48.402;9.994;2023-04-01T07:15:21;8.50;99.90
13585;DHT22;6863;48.402;9.994;2023-04-01T07:17:54;8.40;99.90
13585;DHT22;6863;48.402;9.994;2023-04-01T07:20:31;8.40;99.90
13585;DHT22;6863;48.402;9.994;2023-04-01T07:23:07;8.40;99.90
13585;DHT22;6863;48.402;9.994;2023-04-01T07:25:39;8.30;99.90
13585;DHT22;6863;48.402;9.994;2023-04-01T07:28:13;8.40;99.90
13585;DHT22;6863;48.402;9.994;2023-04-01T07:30:58;8.70;99.90
13585;DHT22;6863;48.402;9.994;2023-04-01T07:33:48;8.70;99.90
13585;DHT22;6863;48.402;9.994;2023-04-01T07:36:26;8.90;99.90
13585;DHT22;6863;48.402;9.994;2023-04-01T07:41:54;8.80;99.90
13585;DHT22;6863;48.402;9.994;2023-04-01T07:47:08;8.90;99.90
13585;DHT22;6863;48.402;9.994;2023-04-01T07:49:48;8.90;99.90
13585;DHT22;6863;48.402;9.994;2023-04-01T07:55:21;8.70;99.90
13585;DHT22;6863;48.402;9.994;2023-04-01T08:01:10;8.60;99.90
13585;DHT22;6863;48.402;9.994;2023-04-01T08:06:47;8.60;99.90
13585;DHT22;6863;48.402;9.994;2023-04-01T08:12:06;8.70;99.90
13585;DHT22;6863;48.402;9.994;2023-04-01T08:23:17;8.50;99.90
13585;DHT22;6863;48.402;9.994;2023-04-01T08:28:24;8.70;99.90
13585;DHT22;6863;48.402;9.994;2023-04-01T08:31:04;8.80;99.90
13585;DHT22;6863;48.402;9.994;2023-04-01T08:33:32;8.70;99.90
13585;DHT22;6863;48.402;9.994;2023-04-01T08:38:36;8.80;99.90
13585;DHT22;6863;48.402;9.994;2023-04-01T08:54:57;8.80;99.90
13585;DHT22;6863;48.402;9.994;2023-04-01T09:11:33;8.30;99.90
13585;DHT22;6863;48.402;9.994;2023-04-01T09:17:36;8.20;99.90
13585;DHT22;6863;48.402;9.994;2023-04-01T09:23:10;7.90;99.90
13585;DHT22;6863;48.402;9.994;2023-04-01T09:26:21;7.90;99.90
13585;DHT22;6863;48.402;9.994;2023-04-01T09:37:18;7.80;99.90
13585;DHT22;6863;48.402;9.994;2023-04-01T09:40:09;7.90;99.90
13585;DHT22;6863;48.402;9.994;2023-04-01T09:56:14;8.10;99.90
13585;DHT22;6863;48.402;9.994;2023-04-01T10:04:26;8.10;99.90
13585;DHT22;6863;48.402;9.994;2023-04-01T10:15:52;8.10;99.90
13585;DHT22;6863;48.402;9.994;2023-04-01T10:18:29;8.20;99.90
13585;DHT22;6863;48.402;9.994;2023-04-01T10:21:22;8.30;99.90
13585;DHT22;6863;48.402;9.994;2023-04-01T10:24:05;8.40;99.90
13585;DHT22;6863;48.402;9.994;2023-04-01T10:35:14;8.60;99.90
13585;DHT22;6863;48.402;9.994;2023-04-01T10:55:23;8.60;99.90
13585;DHT22;6863;48.402;9.994;2023-04-01T11:00:18;8.70;99.90
13585;DHT22;6863;48.402;9.994;2023-04-01T11:03:19;8.80;99.90
13585;DHT22;6863;48.402;9.994;2023-04-01T11:06:11;8.90;99.90
13585;DHT22;6863;48.402;9.994;2023-04-01T11:18:14;8.80;99.90
13585;DHT22;6863;48.402;9.994;2023-04-01T11:26:08;8.20;99.90
13585;DHT22;6863;48.402;9.994;2023-04-01T11:34:20;8.00;99.90
13585;DHT22;6863;48.402;9.994;2023-04-01T11:36:57;7.90;99.90
13585;DHT22;6863;48.402;9.994;2023-04-01T11:45:37;7.80;99.90
13585;DHT22;6863;48.402;9.994;2023-04-01T11:53:51;7.90;99.90
13585;DHT22;6863;48.402;9.994;2023-04-01T11:59:38;7.90;99.90
13585;DHT22;6863;48.402;9.994;2023-04-01T12:08:10;8.50;99.90
13585;DHT22;6863;48.402;9.994;2023-04-01T12:13:56;8.70;99.90
13585;DHT22;6863;48.402;9.994;2023-04-01T12:22:23;9.30;99.90
13585;DHT22;6863;48.402;9.994;2023-04-01T12:30:22;10.20;99.90
13585;DHT22;6863;48.402;9.994;2023-04-01T12:33:03;10.60;99.90
13585;DHT22;6863;48.402;9.994;2023-04-01T12:38:51;11.00;99.90
13585;DHT22;6863;48.402;9.994;2023-04-01T12:41:40;11.40;99.90
13585;DHT22;6863;48.402;9.994;2023-04-01T12:55:39;11.90;98.60
13585;DHT22;6863;48.402;9.994;2023-04-01T13:01:17;11.30;99.90
13585;DHT22;6863;48.402;9.994;2023-04-01T13:06:52;10.30;99.90
13585;DHT22;6863;48.402;9.994;2023-04-01T13:09:56;10.20;99.90
13585;DHT22;6863;48.402;9.994;2023-04-01T13:23:46;9.90;99.90
13585;DHT22;6863;48.402;9.994;2023-04-01T13:26:34;9.90;99.90
13585;DHT22;6863;48.402;9.994;2023-04-01T13:34:24;10.10;99.90
13585;DHT22;6863;48.402;9.994;2023-04-01T13:40:00;10.30;99.90
13585;DHT22;6863;48.402;9.994;2023-04-01T13:42:40;10.40;99.90
13585;DHT22;6863;48.402;9.994;2023-04-01T13:45:26;10.70;99.90
13585;DHT22;6863;48.402;9.994;2023-04-01T13:51:06;10.80;99.90
13585;DHT22;6863;48.402;9.994;2023-04-01T13:56:16;11.00;99.90
13585;DHT22;6863;48.402;9.994;2023-04-01T13:58:47;11.10;99.90
13585;DHT22;6863;48.402;9.994;2023-04-01T14:09:35;12.10;97.70
13585;DHT22;6863;48.402;9.994;2023-04-01T14:12:33;12.50;96.80
13585;DHT22;6863;48.402;9.994;2023-04-01T14:37:57;11.10;97.10
13585;DHT22;6863;48.402;9.994;2023-04-01T14:40:55;10.80;97.40
13585;DHT22;6863;48.402;9.994;2023-04-01T14:49:04;10.70;97.40
13585;DHT22;6863;48.402;9.994;2023-04-01T14:51:39;10.80;96.60
13585;DHT22;6863;48.402;9.994;2023-04-01T14:54:19;10.80;96.00
13585;DHT22;6863;48.402;9.994;2023-04-01T14:57:01;10.70;96.10
13585;DHT22;6863;48.402;9.994;2023-04-01T14:59:29;10.80;95.90
13585;DHT22;6863;48.402;9.994;2023-04-01T15:05:51;10.70;95.60
13585;DHT22;6863;48.402;9.994;2023-04-01T15:08:15;10.70;95.70
13585;DHT22;6863;48.402;9.994;2023-04-01T15:11:15;10.80;95.10
13585;DHT22;6863;48.402;9.994;2023-04-01T15:14:38;10.70;95.00
13585;DHT22;6863;48.402;9.994;2023-04-01T15:17:27;10.70;95.00
13585;DHT22;6863;48.402;9.994;2023-04-01T15:20:40;10.70;94.60
13585;DHT22;6863;48.402;9.994;2023-04-01T15:28:39;10.80;94.50
13585;DHT22;6863;48.402;9.994;2023-04-01T15:36:53;10.70;94.40
13585;DHT22;6863;48.402;9.994;2023-04-01T15:42:17;10.70;94.10
13585;DHT22;6863;48.402;9.994;2023-04-01T15:47:58;10.60;94.40
13585;DHT22;6863;48.402;9.994;2023-04-01T15:50:46;10.50;94.80
13585;DHT22;6863;48.402;9.994;2023-04-01T16:01:18;10.50;96.50
13585;DHT22;6863;48.402;9.994;2023-04-01T16:03:57;10.50;96.80
13585;DHT22;6863;48.402;9.994;2023-04-01T16:06:47;10.30;97.30
13585;DHT22;6863;48.402;9.994;2023-04-01T16:12:04;10.20;99.00
13585;DHT22;6863;48.402;9.994;2023-04-01T16:23:22;9.70;99.90
13585;DHT22;6863;48.402;9.994;2023-04-01T16:29:08;9.40;99.90
13585;DHT22;6863;48.402;9.994;2023-04-01T16:31:57;9.30;99.90
13585;DHT22;6863;48.402;9.994;2023-04-01T16:34:43;9.30;99.90
13585;DHT22;6863;48.402;9.994;2023-04-01T16:37:37;9.30;99.90
13585;DHT22;6863;48.402;9.994;2023-04-01T16:40:24;9.20;99.90
13585;DHT22;6863;48.402;9.994;2023-04-01T16:42:53;9.20;99.90
13585;DHT22;6863;48.402;9.994;2023-04-01T16:45:35;9.20;99.90
13585;DHT22;6863;48.402;9.994;2023-04-01T16:48:17;9.20;99.90
13585;DHT22;6863;48.402;9.994;2023-04-01T16:51:04;9.20;99.90
13585;DHT22;6863;48.402;9.994;2023-04-01T16:53:44;9.10;99.90
13585;DHT22;6863;48.402;9.994;2023-04-01T16:56:16;9.00;99.90
13585;DHT22;6863;48.402;9.994;2023-04-01T17:14:54;8.80;99.90
13585;DHT22;6863;48.402;9.994;2023-04-01T17:17:36;8.80;99.90
13585;DHT22;6863;48.402;9.994;2023-04-01T17:25:41;8.70;99.90
13585;DHT22;6863;48.402;9.994;2023-04-01T17:28:27;8.60;99.90
13585;DHT22;6863;48.402;9.994;2023-04-01T17:31:27;8.70;99.90
13585;DHT22;6863;48.402;9.994;2023-04-01T17:42:16;8.70;99.90
13585;DHT22;6863;48.402;9.994;2023-04-01T17:47:58;8.60;99.90
13585;DHT22;6863;48.402;9.994;2023-04-01T17:50:44;8.60;99.90
13585;DHT22;6863;48.402;9.994;2023-04-01T17:53:41;8.60;99.90
13585;DHT22;6863;48.402;9.994;2023-04-01T17:56:28;8.60;99.90
13585;DHT22;6863;48.402;9.994;2023-04-01T18:12:31;8.50;99.90
13585;DHT22;6863;48.402;9.994;2023-04-01T18:21:09;8.50;99.90
13585;DHT22;6863;48.402;9.994;2023-04-01T18:24:06;8.40;99.90
13585;DHT22;6863;48.402;9.994;2023-04-01T18:26:39;8.40;99.90
13585;DHT22;6863;48.402;9.994;2023-04-01T18:29:23;8.40;99.90
13585;DHT22;6863;48.402;9.994;2023-04-01T18:31:55;8.40;99.90
13585;DHT22;6863;48.402;9.994;2023-04-01T18:34:38;8.40;99.90
13585;DHT22;6863;48.402;9.994;2023-04-01T18:37:23;8.30;99.90
13585;DHT22;6863;48.402;9.994;2023-04-01T18:39:57;8.30;99.90
13585;DHT22;6863;48.402;9.994;2023-04-01T18:42:44;8.30;99.90
13585;DHT22;6863;48.402;9.994;2023-04-01T18:45:51;8.30;99.90
13585;DHT22;6863;48.402;9.994;2023-04-01T18:51:20;8.20;99.90
13585;DHT22;6863;48.402;9.994;2023-04-01T18:54:10;8.20;99.90
13585;DHT22;6863;48.402;9.994;2023-04-01T18:56:41;8.10;99.90
13585;DHT22;6863;48.402;9.994;2023-04-01T18:59:28;8.10;99.90
13585;DHT22;6863;48.402;9.994;2023-04-01T19:05:07;8.00;99.90
13585;DHT22;6863;48.402;9.994;2023-04-01T19:07:42;8.00;99.90
13585;DHT22;6863;48.402;9.994;2023-04-01T19:10:45;8.10;99.90
13585;DHT22;6863;48.402;9.994;2023-04-01T19:16:11;8.10;99.90
13585;DHT22;6863;48.402;9.994;2023-04-01T19:19:19;8.10;99.90
13585;DHT22;6863;48.402;9.994;2023-04-01T19:27:29;8.10;99.90
13585;DHT22;6863;48.402;9.994;2023-04-01T19:35:58;8.10;99.90
13585;DHT22;6863;48.402;9.994;2023-04-01T19:38:52;8.00;99.90
13585;DHT22;6863;48.402;9.994;2023-04-01T19:41:36;8.00;99.90
13585;DHT22;6863;48.402;9.994;2023-04-01T19:46:55;7.90;99.90
13585;DHT22;6863;48.402;9.994;2023-04-01T19:54:58;8.00;99.90
13585;DHT22;6863;48.402;9.994;2023-04-01T20:00:22;8.10;99.90
13585;DHT22;6863;48.402;9.994;2023-04-01T20:03:03;8.10;99.90
13585;DHT22;6863;48.402;9.994;2023-04-01T20:11:01;8.10;99.90
13585;DHT22;6863;48.402;9.994;2023-04-01T20:16:07;8.20;99.90
13585;DHT22;6863;48.402;9.994;2023-04-01T20:18:51;8.10;99.90
13585;DHT22;6863;48.402;9.994;2023-04-01T20:21:28;8.20;99.90
13585;DHT22;6863;48.402;9.994;2023-04-01T20:24:21;8.20;99.90
13585;DHT22;6863;48.402;9.994;2023-04-01T20:26:58;8.20;99.90
13585;DHT22;6863;48.402;9.994;2023-04-01T20:29:40;8.10;99.90
13585;DHT22;6863;48.402;9.994;2023-04-01T20:37:48;8.10;99.90
13585;DHT22;6863;48.402;9.994;2023-04-01T20:49:04;7.70;99.90
13585;DHT22;6863;48.402;9.994;2023-04-01T20:51:42;7.70;99.90
13585;DHT22;6863;48.402;9.994;2023-04-01T20:57:09;7.50;99.90
13585;DHT22;6863;48.402;9.994;2023-04-01T21:02:52;7.40;99.90
13585;DHT22;6863;48.402;9.994;2023-04-01T21:05:57;7.30;99.90
13585;DHT22;6863;48.402;9.994;2023-04-01T21:14:32;7.30;99.90
13585;DHT22;6863;48.402;9.994;2023-04-01T21:20:00;7.10;99.90
13585;DHT22;6863;48.402;9.994;2023-04-01T21:25:50;7.10;99.90
13585;DHT22;6863;48.402;9.994;2023-04-01T21:42:23;6.80;99.90
13585;DHT22;6863;48.402;9.994;2023-04-01T21:48:07;6.50;99.90
13585;DHT22;6863;48.402;9.994;2023-04-01T22:01:44;6.30;99.90
13585;DHT22;6863;48.402;9.994;2023-04-01T22:07:25;6.30;99.90
13585;DHT22;6863;48.402;9.994;2023-04-01T22:12:37;6.50;99.90
13585;DHT22;6863;48.402;9.994;2023-04-01T22:15:40;6.50;99.90
13585;DHT22;6863;48.402;9.994;2023-04-01T22:21:00;6.50;99.90
13585;DHT22;6863;48.402;9.994;2023-04-01T22:23:58;6.60;99.90
13585;DHT22;6863;48.402;9.994;2023-04-01T22:26:47;6.50;99.90
13585;DHT22;6863;48.402;9.994;2023-04-01T22:29:35;6.40;99.90
13585;DHT22;6863;48.402;9.994;2023-04-01T22:32:07;6.30;99.90
13585;DHT22;6863;48.402;9.994;2023-04-01T22:42:56;6.20;99.90
13585;DHT22;6863;48.402;9.994;2023-04-01T22:45:49;6.30;99.90
13585;DHT22;6863;48.402;9.994;2023-04-01T22:48:25;6.30;99.90
13585;DHT22;6863;48.402;9.994;2023-04-01T22:56:52;6.30;99.90
13585;DHT22;6863;48.402;9.994;2023-04-01T23:02:32;6.50;99.90
13585;DHT22;6863;48.402;9.994;2023-04-01T23:05:05;6.60;99.90
13585;DHT22;6863;48.402;9.994;2023-04-01T23:10:43;6.60;99.90
13585;DHT22;6863;48.402;9.994;2023-04-01T23:13:22;6.60;99.90
13585;DHT22;6863;48.402;9.994;2023-04-01T23:15:51;6.60;99.90
13585;DHT22;6863;48.402;9.994;2023-04-01T23:18:22;6.60;99.90
13585;DHT22;6863;48.402;9.994;2023-04-01T23:21:14;6.70;99.90
13585;DHT22;6863;48.402;9.994;2023-04-01T23:24:03;6.70;99.90
13585;DHT22;6863;48.402;9.994;2023-04-01T23:29:39;6.70;99.90
13585;DHT22;6863;48.402;9.994;2023-04-01T23:32:19;6.70;99.90
13585;DHT22;6863;48.402;9.994;2023-04-01T23:34:56;6.70;99.90
13585;DHT22;6863;48.402;9.994;2023-04-01T23:37:23;6.70;99.90
13585;DHT22;6863;48.402;9.994;2023-04-01T23:39:54;6.70;99.90
13585;DHT22;6863;48.402;9.994;2023-04-01T23:42:32;6.70;99.90
13585;DHT22;6863;48.402;9.994;2023-04-01T23:45:05;6.70;99.90
13585;DHT22;6863;48.402;9.994;2023-04-01T23:47:39;6.70;99.90
13585;DHT22;6863;48.402;9.994;2023-04-01T23:52:49;6.60;99.90
13585;DHT22;6863;48.402;9.994;2023-04-01T23:55:30;6.60;99.90
